CheckWX is a tool to help pilots better visualize weather data.  It is not intended as a substitute for an official pre-flight weather briefing.

06:29:06 UTC

LKMT TAF
Ostrava Leos Janáček Airport
Ostrava, Czech Republic
TAF LKMT 220500Z 2206/2312 VRB02KT 9999 BKN030 BECMG 2210/2212 03010KT BECMG 2219/2222 VRB02KT BECMG 2223/2302 4000 BR TEMPO 2302/2306 1700 BR BKN010 PROB30 TEMPO 2304/2307 1200 MIFG BKN006 BECMG 2307/2309 24006KT CAVOK

Mar-22@
06:00 UTC

Mar-22 @ 06:00 UTC

Mar-22@
10:00 UTC

Mar-22 @ 10:00 UTC

TAF LKMT 220500Z 2206/2312 VRB02KT 9999 BKN030
Wind
  • Variable at 2 KTS
Cloud Levels
  • Broken at 3,000' AGL

Mar-22@
10:00 UTC

Mar-22 @ 10:00 UTC

Mar-22@
19:00 UTC

Mar-22 @ 19:00 UTC

BECMG 2210/2212 03010KT

Becoming

Becoming Conditions expected by Fri, Mar 22, 2019 @ 12:00 UTC

Wind
  • 030° at 10 KTS
Cloud Levels
  • Broken at 3,000' AGL

Mar-22@
19:00 UTC

Mar-22 @ 19:00 UTC

Mar-22@
23:00 UTC

Mar-22 @ 23:00 UTC

BECMG 2219/2222 VRB02KT

Becoming

Becoming Conditions expected by Fri, Mar 22, 2019 @ 22:00 UTC

Wind
  • Variable at 2 KTS
Cloud Levels
  • Broken at 3,000' AGL

Mar-22@
23:00 UTC

Mar-22 @ 23:00 UTC

Mar-23@
07:00 UTC

Mar-23 @ 07:00 UTC

BECMG 2223/2302 4000 BR

Becoming

Becoming Conditions expected by Sat, Mar 23, 2019 @ 02:00 UTC

Wind
  • Variable at 2 KTS
Conditions
Mist
Cloud Levels
  • Broken at 3,000' AGL

Mar-23@
02:00 UTC

Mar-23 @ 02:00 UTC

Mar-23@
06:00 UTC

Mar-23 @ 06:00 UTC

TEMPO 2302/2306 1700 BR BKN010

Temporary

Temporary Changes expected for less than half the time period

Conditions
Mist
Cloud Levels
  • Broken at 1,000' AGL

Mar-23@
04:00 UTC

Mar-23 @ 04:00 UTC

Mar-23@
07:00 UTC

Mar-23 @ 07:00 UTC

PROB30 TEMPO 2304/2307 1200 MIFG BKN006

Temporary - 30% Likelihood

Temporary - 30% Likelihood during this time.

Conditions
Shallow Fog
Cloud Levels
  • Broken at 600' AGL

Mar-23@
07:00 UTC

Mar-23 @ 07:00 UTC

Mar-23@
12:00 UTC

Mar-23 @ 12:00 UTC

BECMG 2307/2309 24006KT CAVOK

Becoming

Becoming Conditions expected by Sat, Mar 23, 2019 @ 09:00 UTC

Wind
  • 240° at 6 KTS
Conditions
No significant weather
Cloud Levels
  • No significant clouds